Terminal Aerodrome Forecast
Issued by NWS

Current Version | Previous Version | Text Only | Print | Product List | Glossary On
Versions: 1 2 3 4 5 6 7 8 9 10 11 12 13 14 15 16 17 18 19
506
FTUS41 KBTV 200531
TAFRUT
TAF
KRUT 200531Z 2006/2106 VRB02KT P6SM OVC025
      TEMPO 2008/2012 4SM BR BKN020 OVC025
     FM201300 VRB03KT P6SM BKN035
     FM201700 12006KT P6SM SCT045
     FM210300 14004KT P6SM BKN025 OVC035=

USA.gov is the U.S. government's official web portal to all federal, state and local government web resources and services.